KSEAKOLM

Guest
Details From KSEA - Seattle Tacoma Intl
To KOLM - Olympia
Flight Number -
Tags Generated
Created
Modified
Stats Distance 38 nm / 71 km
Max Altitude 0 ft / 0 m
Waypoints 2
Social Downloads 7
Likes 0
Share VATSIM

Download

Looking for another format? Having issues loading an existing format? Contact us
Advertisement - Login to hide

Notes

Generated

Route

KSEA KOLM

ID Type Via Altitude Latitude Longitude Leg Dist Tot Dist Heading (true) Name
O KSEA APT - 0 ft / 0 m 47.46383˚ -122.31786˚ - 0 nm - -
O KOLM APT - 0 ft / 0 m 46.97116˚ -122.90824˚ 38 nm 38 nm 219° / 219° -

Altitude Profile

Advertisement - Login to hide

KSEA

Details ICAO KSEA (SEA)
Name Seattle Tacoma Intl
Region United States
Timezone America/Los_Angeles (UTC-8.0)
Stats Elevation 433 ft / 132 m (AMSL)
Location 47.450188° -122.312320°
Runways 3
Magnetic Variation 15.685° E

METAR

KSEA 122153Z 28003KT 10SM BKN050 BKN140 BKN200 07/01 A3041 RMK AO2 SLP309 T00720006

Decode

TAF

TAF AMD KSEA 122102Z 1221/1324 08003KT P6SM BKN060 BKN150 FM122300 33004KT P6SM SCT060 SCT150 FM130300 03004KT P6SM SCT250 FM131300 03006KT 1/2SM FG BKN001 FM132100 03006KT 5SM BR SCT002

Decode

Departure Runways

ID Width Length Bearing (true) Bearing (mag) Surface Threshold Offset Overrun Length
16C 151 ft / 46 m 9,429 ft / 2,874 m 180.34° 164.65° Concrete 0 ft / 0 m 223 ft / 68 m
16L 151 ft / 46 m 11,904 ft / 3,628 m 180.34° 164.65° Concrete 0 ft / 0 m 151 ft / 46 m
16R 151 ft / 46 m 8,503 ft / 2,592 m 180.34° 164.65° Concrete 0 ft / 0 m 164 ft / 50 m
34C 151 ft / 46 m 9,429 ft / 2,874 m 0.34° 344.65° Concrete 0 ft / 0 m 394 ft / 120 m
34L 151 ft / 46 m 8,503 ft / 2,592 m 0.34° 344.65° Concrete 0 ft / 0 m 394 ft / 120 m
34R 151 ft / 46 m 11,904 ft / 3,628 m 0.34° 344.65° Concrete 0 ft / 0 m 400 ft / 122 m

KOLM

Details ICAO KOLM (OLM)
Name OLYMPIA
Region United States
Timezone America/Los_Angeles (UTC-8.0)
Stats Elevation 209 ft / 64 m (AMSL)
Location 46.969312° -122.902479°
Runways 2
Magnetic Variation 15.675° E

METAR

KOLM 122154Z 00000KT 10SM CLR 06/M01 A3042 RMK AO2 SLP302 T00561006

Decode

TAF

TAF KOLM 121720Z 1218/1318 18004KT P6SM OVC060 FM122200 VRB03KT P6SM SCT200 FM130900 00000KT 1/4SM FZFG VV001

Decode

Destination Runways

ID Width Length Bearing (true) Bearing (mag) Surface Threshold Offset Overrun Length
08 151 ft / 46 m 4,147 ft / 1,264 m 103.71° 88.04° Asphalt 0 ft / 0 m 0 ft / 0 m
17 151 ft / 46 m 5,503 ft / 1,677 m 191.27° 175.60° Asphalt 0 ft / 0 m 600 ft / 183 m
26 151 ft / 46 m 4,147 ft / 1,264 m 283.72° 268.05° Asphalt 0 ft / 0 m 0 ft / 0 m
35 151 ft / 46 m 5,503 ft / 1,677 m 11.27° 355.60° Asphalt 0 ft / 0 m 0 ft / 0 m

Approach Navaids

Runway Type Ident Frequency Range Bearing (true) Bearing (mag) Slope Elevation
17 Localiser IOLM 111.90 MHz 18 nm / 33 km 191.30° 175.63° - 200 ft / 61 m (AMSL)
17 Glidescope IOLM 111.90 MHz 10 nm / 19 km 191.30° 175.63° 3.00° 192 ft / 59 m (AMSL)

Popular Alternatives